Time;durP1;ratioP1;P1;durP2;ratioP2;P2;SDS_P1;SDS_P2;PMS_P1;PMS_P2;Temp;Humidity;BMP_temperature;BMP_pressure;BME280_temperature;BME280_humidity;BME280_pressure;Samples;Min_cycle;Max_cycle;Signal;HPM_P1;HPM_P2
2023/05/22 00:00:40;;;;;;;23.15;14.85;;;16.50;92.20;;;;;;5017386;28;85954;-77
2023/05/22 00:03:07;;;;;;;25.63;15.75;;;16.50;92.20;;;;;;5015488;28;86675;-76
2023/05/22 00:05:39;;;;;;;23.73;15.10;;;16.50;92.40;;;;;;5015578;28;86569;-76
2023/05/22 00:08:11;;;;;;;21.43;15.20;;;16.40;92.30;;;;;;5015293;28;90156;-77
2023/05/22 00:10:37;;;;;;;28.33;17.15;;;16.40;92.40;;;;;;5016985;28;86632;-76
2023/05/22 00:13:03;;;;;;;29.10;16.65;;;16.40;92.60;;;;;;5017843;28;86419;-77
2023/05/22 00:15:30;;;;;;;24.85;16.75;;;16.30;92.60;;;;;;5017440;28;86571;-79
2023/05/22 00:17:55;;;;;;;27.63;16.58;;;16.30;92.60;;;;;;5016487;28;86583;-77
2023/05/22 00:20:22;;;;;;;25.83;17.10;;;16.30;92.60;;;;;;5015644;28;86000;-77
2023/05/22 00:22:48;;;;;;;28.55;16.83;;;16.30;92.50;;;;;;5016270;28;86447;-77
2023/05/22 00:25:16;;;;;;;28.23;16.00;;;16.30;92.70;;;;;;5017718;28;87313;-77
2023/05/22 00:27:42;;;;;;;23.42;16.70;;;16.20;92.60;;;;;;5016516;28;86609;-77
2023/05/22 00:30:08;;;;;;;26.95;17.20;;;16.20;92.70;;;;;;5016561;28;86189;-77
2023/05/22 00:32:33;;;;;;;28.67;17.50;;;16.20;92.90;;;;;;5016049;28;86946;-77
2023/05/22 00:34:59;;;;;;;32.50;17.52;;;16.10;92.90;;;;;;5017006;28;87134;-76
2023/05/22 00:37:25;;;;;;;27.50;16.55;;;16.10;93.00;;;;;;5017240;28;86394;-76
2023/05/22 00:39:50;;;;;;;28.02;17.60;;;16.00;93.00;;;;;;5017345;28;86889;-77
2023/05/22 00:42:17;;;;;;;29.42;17.73;;;16.00;93.20;;;;;;5015586;28;86459;-76
2023/05/22 00:44:43;;;;;;;25.70;16.95;;;16.00;93.30;;;;;;5015512;28;87828;-77
2023/05/22 00:47:08;;;;;;;25.60;16.52;;;15.90;93.30;;;;;;5016043;28;86557;-77
2023/05/22 00:49:34;;;;;;;27.52;17.02;;;15.90;93.40;;;;;;5016647;28;86486;-77
2023/05/22 00:52:00;;;;;;;25.60;16.08;;;15.90;93.50;;;;;;5017384;28;86101;-77
2023/05/22 00:54:26;;;;;;;29.38;17.48;;;15.80;93.60;;;;;;5016803;28;88063;-76
2023/05/22 00:56:52;;;;;;;32.65;18.17;;;15.80;93.70;;;;;;5016153;28;86784;-76
2023/05/22 00:59:18;;;;;;;27.30;17.85;;;15.80;93.90;;;;;;5015542;28;86304;-76
2023/05/22 01:01:43;;;;;;;30.23;17.77;;;15.80;94.00;;;;;;5015366;28;89979;-77
2023/05/22 01:04:11;;;;;;;30.25;17.80;;;15.70;94.10;;;;;;5016207;28;88014;-77
2023/05/22 01:06:37;;;;;;;27.23;17.13;;;15.70;93.90;;;;;;5015851;28;86978;-77
2023/05/22 01:09:03;;;;;;;34.20;17.48;;;15.70;94.00;;;;;;5016311;28;86376;-77
2023/05/22 01:11:51;;;;;;;30.27;17.70;;;15.70;94.10;;;;;;5014979;28;86840;-76
2023/05/22 01:14:26;;;;;;;30.90;17.17;;;15.60;94.10;;;;;;5018373;28;88390;-76
2023/05/22 01:17:21;;;;;;;31.50;17.25;;;15.60;94.20;;;;;;5017834;28;88859;-76
2023/05/22 01:20:09;;;;;;;26.98;17.77;;;15.60;94.20;;;;;;5019786;28;86533;-76
2023/05/22 01:23:07;;;;;;;31.33;17.55;;;15.60;94.30;;;;;;5019710;28;86136;-77
2023/05/22 01:25:39;;;;;;;31.17;18.00;;;15.60;94.20;;;;;;5019029;28;87122;-77
2023/05/22 01:28:30;;;;;;;28.88;17.65;;;15.50;94.20;;;;;;5018661;28;86808;-76
2023/05/22 01:31:07;;;;;;;33.50;18.00;;;15.50;94.20;;;;;;4995330;28;88925;-77
2023/05/22 01:33:58;;;;;;;26.17;18.15;;;15.40;94.40;;;;;;5020190;28;86441;-77
2023/05/22 01:36:27;;;;;;;28.75;18.13;;;15.30;94.50;;;;;;5018913;28;87374;-77
2023/05/22 01:38:54;;;;;;;31.10;18.27;;;15.20;94.50;;;;;;5019031;28;87704;-76
2023/05/22 01:41:20;;;;;;;27.90;17.67;;;15.20;94.50;;;;;;5019979;28;86275;-77
2023/05/22 01:43:46;;;;;;;30.90;18.25;;;15.20;94.40;;;;;;5020823;28;86461;-77
2023/05/22 01:46:12;;;;;;;28.10;17.95;;;15.20;94.40;;;;;;5020782;28;87405;-77
2023/05/22 01:48:37;;;;;;;30.83;17.48;;;15.10;94.50;;;;;;5020283;28;86590;-77
2023/05/22 01:51:41;;;;;;;27.67;17.73;;;15.00;94.50;;;;;;5020313;28;86446;-77
2023/05/22 01:54:29;;;;;;;33.30;17.42;;;15.00;94.50;;;;;;5019310;28;86836;-76
2023/05/22 01:57:04;;;;;;;30.45;17.65;;;14.90;94.40;;;;;;5019237;28;87510;-77
2023/05/22 01:59:44;;;;;;;31.45;16.45;;;14.90;94.40;;;;;;5019659;28;86755;-76
2023/05/22 02:02:12;;;;;;;30.92;18.10;;;14.80;94.40;;;;;;5018443;28;86191;-76
2023/05/22 02:04:41;;;;;;;30.05;17.08;;;14.80;94.40;;;;;;5018910;28;86183;-76
2023/05/22 02:07:08;;;;;;;30.85;18.77;;;14.70;94.40;;;;;;5021373;28;86927;-77
2023/05/22 02:09:36;;;;;;;32.10;18.35;;;14.70;94.50;;;;;;5017153;28;87506;-76
2023/05/22 02:12:02;;;;;;;36.92;19.00;;;14.60;94.50;;;;;;5016427;28;86080;-76
2023/05/22 02:14:29;;;;;;;40.08;19.48;;;14.60;94.70;;;;;;5016806;28;86180;-77
2023/05/22 02:16:55;;;;;;;35.00;19.95;;;14.50;94.70;;;;;;5015271;28;88931;-77
2023/05/22 02:19:21;;;;;;;39.13;20.58;;;14.50;94.80;;;;;;5015185;28;88877;-76
2023/05/22 02:21:46;;;;;;;34.88;19.50;;;14.40;94.80;;;;;;5019805;28;86372;-77
2023/05/22 02:24:12;;;;;;;39.00;19.92;;;14.40;94.70;;;;;;5018177;28;87159;-76
2023/05/22 02:26:38;;;;;;;36.00;19.17;;;14.40;94.90;;;;;;5018282;28;88110;-77
2023/05/22 02:29:04;;;;;;;36.40;19.77;;;14.30;94.90;;;;;;5016573;28;89516;-77
2023/05/22 02:31:29;;;;;;;37.00;20.27;;;14.30;94.90;;;;;;5018397;28;86370;-77
2023/05/22 02:33:55;;;;;;;38.38;20.42;;;14.20;95.10;;;;;;5019718;28;86123;-77
2023/05/22 02:36:21;;;;;;;37.53;21.38;;;14.20;95.10;;;;;;5017827;28;87448;-76
2023/05/22 02:38:47;;;;;;;42.42;22.88;;;14.20;95.10;;;;;;5017397;28;86790;-76
2023/05/22 02:41:13;;;;;;;45.15;23.83;;;14.10;95.30;;;;;;5018516;28;86233;-75
2023/05/22 02:43:38;;;;;;;42.72;24.35;;;14.10;95.40;;;;;;5017417;28;86773;-76
2023/05/22 02:46:04;;;;;;;39.03;23.30;;;14.00;95.40;;;;;;5018496;28;86979;-76
2023/05/22 02:48:30;;;;;;;37.95;23.33;;;14.00;95.50;;;;;;5018392;28;86465;-76
2023/05/22 02:50:55;;;;;;;42.70;24.23;;;14.00;95.50;;;;;;5016635;28;86927;-76
2023/05/22 02:53:21;;;;;;;42.33;23.95;;;14.00;95.50;;;;;;5017577;28;86627;-76
2023/05/22 02:55:47;;;;;;;44.33;23.92;;;13.90;95.50;;;;;;5017377;28;87886;-76
2023/05/22 02:58:13;;;;;;;41.28;23.60;;;13.90;95.60;;;;;;5017934;28;86861;-76
2023/05/22 03:00:39;;;;;;;40.45;23.35;;;13.80;95.60;;;;;;5018563;28;90698;-76
2023/05/22 03:03:05;;;;;;;41.65;23.50;;;13.80;95.70;;;;;;5017893;28;86732;-77
2023/05/22 03:05:31;;;;;;;45.47;24.50;;;13.80;95.70;;;;;;5018441;28;86300;-76
2023/05/22 03:07:58;;;;;;;49.63;27.35;;;13.70;95.80;;;;;;5024327;28;88853;-76
2023/05/22 03:10:23;;;;;;;46.00;26.73;;;13.70;95.80;;;;;;5017378;28;86276;-76
2023/05/22 03:12:50;;;;;;;41.78;25.30;;;13.70;95.90;;;;;;5018542;28;86402;-76
2023/05/22 03:15:17;;;;;;;53.70;26.98;;;13.70;95.80;;;;;;5015738;28;90390;-76
2023/05/22 03:17:42;;;;;;;50.15;28.67;;;13.70;95.80;;;;;;5016602;28;86893;-76
2023/05/22 03:20:09;;;;;;;53.05;29.98;;;13.60;95.90;;;;;;5017827;28;86288;-76
2023/05/22 03:22:34;;;;;;;51.90;29.98;;;13.70;95.90;;;;;;5018348;28;86465;-77
2023/05/22 03:25:00;;;;;;;50.40;32.10;;;13.60;96.00;;;;;;5018577;28;86510;-76
2023/05/22 03:27:26;;;;;;;53.65;32.45;;;13.60;96.00;;;;;;5017415;28;86863;-77
2023/05/22 03:29:52;;;;;;;56.78;34.60;;;13.70;96.00;;;;;;5017264;28;86023;-76
2023/05/22 03:32:17;;;;;;;55.72;36.78;;;13.60;96.00;;;;;;5017607;28;86485;-76
2023/05/22 03:34:43;;;;;;;66.68;37.20;;;13.70;96.00;;;;;;5017077;28;87559;-77
2023/05/22 03:37:09;;;;;;;70.03;38.38;;;13.70;96.10;;;;;;5017312;28;86973;-75
2023/05/22 03:39:35;;;;;;;67.15;38.90;;;13.60;96.10;;;;;;5017280;28;85887;-76
2023/05/22 03:42:01;;;;;;;76.63;41.45;;;13.60;96.10;;;;;;5017428;28;86545;-77
2023/05/22 03:44:26;;;;;;;79.40;42.58;;;13.60;96.10;;;;;;5016661;28;87319;-77
2023/05/22 03:46:52;;;;;;;83.55;43.58;;;13.70;96.20;;;;;;5016464;28;86454;-76
2023/05/22 03:49:18;;;;;;;84.93;45.90;;;13.70;96.20;;;;;;5018119;28;85812;-77
2023/05/22 03:51:43;;;;;;;91.22;45.20;;;13.70;96.20;;;;;;5016662;28;86514;-76
2023/05/22 03:54:09;;;;;;;100.75;45.50;;;13.70;96.30;;;;;;5017284;28;87458;-76
2023/05/22 03:56:35;;;;;;;97.60;47.80;;;13.70;96.40;;;;;;5015778;28;87016;-76
2023/05/22 03:59:00;;;;;;;87.45;46.20;;;13.70;96.50;;;;;;5017223;28;86530;-76
2023/05/22 04:01:26;;;;;;;105.95;51.58;;;13.70;96.50;;;;;;5017159;28;86166;-76
2023/05/22 04:03:52;;;;;;;93.55;46.88;;;13.70;96.60;;;;;;5016820;28;88403;-77
2023/05/22 04:06:21;;;;;;;107.15;50.03;;;13.70;96.50;;;;;;5017371;28;86757;-76
2023/05/22 04:08:49;;;;;;;112.47;51.22;;;13.70;96.50;;;;;;5016875;28;86484;-76
2023/05/22 04:11:15;;;;;;;113.47;53.63;;;13.70;96.60;;;;;;5017159;28;86179;-77
2023/05/22 04:13:44;;;;;;;115.43;52.30;;;13.70;96.70;;;;;;5016008;28;86847;-76
2023/05/22 04:16:10;;;;;;;113.75;52.90;;;13.70;96.70;;;;;;5017616;28;86565;-76
2023/05/22 04:18:35;;;;;;;120.68;52.53;;;13.70;96.70;;;;;;5016733;28;86326;-76
2023/05/22 04:21:01;;;;;;;119.30;53.05;;;13.70;96.90;;;;;;5017193;28;86095;-77
2023/05/22 04:23:27;;;;;;;135.48;56.50;;;13.70;96.80;;;;;;5016443;28;88529;-76
2023/05/22 04:25:53;;;;;;;127.38;56.63;;;13.80;96.90;;;;;;5014483;28;88771;-77
2023/05/22 04:28:21;;;;;;;126.72;57.05;;;13.70;97.00;;;;;;5017660;28;86248;-77
2023/05/22 04:30:47;;;;;;;121.95;56.63;;;13.70;97.00;;;;;;5017160;28;88550;-76
2023/05/22 04:33:13;;;;;;;122.88;55.88;;;13.70;97.10;;;;;;5015849;28;87959;-77
2023/05/22 04:35:43;;;;;;;128.52;54.47;;;13.70;97.10;;;;;;5017094;28;86243;-76
2023/05/22 04:38:09;;;;;;;132.07;55.83;;;13.70;97.10;;;;;;5015795;28;85982;-77
2023/05/22 04:40:36;;;;;;;119.93;55.30;;;13.70;97.10;;;;;;5014923;28;86712;-77
2023/05/22 04:43:02;;;;;;;130.50;56.28;;;13.80;97.10;;;;;;5017733;28;88267;-77
2023/05/22 04:45:29;;;;;;;112.72;54.28;;;13.80;97.00;;;;;;5016347;28;87066;-76
2023/05/22 04:47:55;;;;;;;128.07;59.35;;;13.80;97.00;;;;;;5016965;28;86121;-77
2023/05/22 04:50:21;;;;;;;112.50;54.03;;;13.80;97.00;;;;;;5015779;28;86512;-76
2023/05/22 04:52:47;;;;;;;129.38;57.97;;;13.80;97.00;;;;;;5014739;28;90556;-77
2023/05/22 04:55:13;;;;;;;135.60;59.95;;;13.80;97.00;;;;;;5017635;28;86826;-76
2023/05/22 04:57:39;;;;;;;151.80;60.65;;;13.80;97.00;;;;;;5015587;28;86227;-77
2023/05/22 05:00:07;;;;;;;139.48;62.85;;;13.80;97.20;;;;;;5016545;28;86095;-76
2023/05/22 05:02:33;;;;;;;156.30;66.65;;;13.80;97.00;;;;;;5016670;28;86447;-76
2023/05/22 05:04:59;;;;;;;139.93;64.28;;;13.80;97.10;;;;;;5016258;28;90864;-76
2023/05/22 05:07:24;;;;;;;155.95;66.38;;;13.80;97.10;;;;;;5016051;28;86405;-76
2023/05/22 05:09:50;;;;;;;162.15;66.88;;;13.80;97.10;;;;;;5016888;28;86328;-77
2023/05/22 05:12:16;;;;;;;159.15;67.28;;;13.80;96.90;;;;;;5016243;28;86311;-77
2023/05/22 05:14:42;;;;;;;141.57;64.57;;;13.90;97.00;;;;;;5015888;28;87014;-77
2023/05/22 05:17:07;;;;;;;160.00;65.25;;;13.90;97.10;;;;;;5016326;28;86092;-77
2023/05/22 05:19:33;;;;;;;153.48;65.35;;;13.90;97.00;;;;;;5019418;28;86426;-78
2023/05/22 05:22:00;;;;;;;163.98;65.55;;;13.90;97.00;;;;;;5017338;28;87874;-78
2023/05/22 05:24:26;;;;;;;178.98;67.68;;;13.80;97.20;;;;;;5014091;28;88109;-78
2023/05/22 05:26:51;;;;;;;168.23;67.32;;;13.80;97.30;;;;;;5016461;28;86545;-78
2023/05/22 05:29:17;;;;;;;164.38;65.22;;;13.80;97.40;;;;;;5015958;28;86234;-78
2023/05/22 05:31:43;;;;;;;171.82;67.35;;;13.80;97.30;;;;;;5014195;28;90332;-78
2023/05/22 05:34:08;;;;;;;178.18;63.22;;;13.80;97.40;;;;;;5016576;28;87036;-79
2023/05/22 05:36:34;;;;;;;143.73;62.53;;;13.80;97.30;;;;;;5015998;28;86216;-78
2023/05/22 05:39:00;;;;;;;179.95;67.03;;;13.80;97.40;;;;;;5016230;28;85999;-78
2023/05/22 05:41:26;;;;;;;175.55;67.97;;;13.80;97.20;;;;;;5015760;28;87234;-79
2023/05/22 05:43:51;;;;;;;177.18;65.00;;;13.80;97.50;;;;;;5015272;28;86514;-78
2023/05/22 05:46:18;;;;;;;170.18;65.28;;;13.80;97.50;;;;;;5017312;28;86463;-78
2023/05/22 05:48:44;;;;;;;171.48;64.90;;;13.80;97.40;;;;;;5016098;28;86544;-79
2023/05/22 05:51:09;;;;;;;166.70;63.67;;;13.90;97.30;;;;;;5016171;28;86073;-79
2023/05/22 05:53:39;;;;;;;173.30;64.35;;;13.90;97.30;;;;;;5015227;28;86688;-79
2023/05/22 05:56:06;;;;;;;164.82;60.25;;;13.90;97.20;;;;;;5014138;28;88830;-80
2023/05/22 05:58:32;;;;;;;168.35;60.10;;;14.00;97.20;;;;;;5015464;28;86267;-80
2023/05/22 06:00:58;;;;;;;151.20;58.33;;;14.00;97.10;;;;;;5015456;28;90937;-80
2023/05/22 06:03:26;;;;;;;171.18;58.80;;;14.10;97.00;;;;;;5018960;28;86712;-79
2023/05/22 06:05:52;;;;;;;158.43;58.67;;;14.10;97.10;;;;;;5016225;28;87167;-80
2023/05/22 06:08:18;;;;;;;167.75;59.08;;;14.10;97.10;;;;;;5019262;28;85978;-80
2023/05/22 06:10:45;;;;;;;181.73;62.53;;;14.10;97.10;;;;;;5017079;28;90283;-79
2023/05/22 06:13:11;;;;;;;196.05;62.28;;;14.10;97.00;;;;;;5020229;28;86403;-80
2023/05/22 06:15:36;;;;;;;196.45;61.90;;;14.10;97.30;;;;;;5018668;28;86336;-80
2023/05/22 06:18:02;;;;;;;177.43;60.88;;;14.20;97.30;;;;;;5016904;28;86049;-79
2023/05/22 06:20:28;;;;;;;187.38;59.92;;;14.20;97.10;;;;;;5018917;28;86953;-80
2023/05/22 06:22:54;;;;;;;200.73;59.50;;;14.20;97.10;;;;;;5018549;28;86582;-80
2023/05/22 06:25:19;;;;;;;204.73;58.70;;;14.20;97.20;;;;;;5018525;28;85887;-79
2023/05/22 06:27:46;;;;;;;192.93;56.40;;;14.20;97.10;;;;;;5018104;28;86711;-79
2023/05/22 06:30:12;;;;;;;180.73;57.05;;;14.20;97.10;;;;;;5017961;28;86637;-79
2023/05/22 06:32:38;;;;;;;189.43;56.40;;;14.30;97.10;;;;;;5016629;28;87942;-79
2023/05/22 06:35:04;;;;;;;195.77;56.75;;;14.30;97.20;;;;;;5015965;28;86518;-79
2023/05/22 06:37:34;;;;;;;188.43;57.25;;;14.30;97.20;;;;;;5017834;28;86115;-80
2023/05/22 06:40:00;;;;;;;220.50;61.13;;;14.30;97.20;;;;;;5021217;28;87448;-79
2023/05/22 06:42:26;;;;;;;208.23;58.42;;;14.40;97.20;;;;;;5017525;28;89026;-80
2023/05/22 06:44:51;;;;;;;196.13;57.90;;;14.40;97.20;;;;;;5014897;28;86336;-80
2023/05/22 06:47:17;;;;;;;212.15;59.33;;;14.40;97.10;;;;;;5016698;28;86209;-80
2023/05/22 06:49:43;;;;;;;196.98;58.08;;;14.50;97.10;;;;;;5016836;28;89892;-80
2023/05/22 06:52:09;;;;;;;200.73;60.45;;;14.50;97.00;;;;;;5021535;28;86298;-80
2023/05/22 06:54:34;;;;;;;182.23;57.90;;;14.50;97.00;;;;;;5025090;28;87613;-80
2023/05/22 06:57:02;;;;;;;172.00;55.83;;;14.60;96.80;;;;;;5031125;28;87209;-83
2023/05/22 07:00:08;;;;;;;176.07;56.42;;;14.60;96.70;;;;;;5041450;28;88921;-83
2023/05/22 07:02:33;;;;;;;155.80;55.25;;;14.50;96.70;;;;;;5016616;28;89324;-79
2023/05/22 07:04:59;;;;;;;147.88;51.30;;;14.50;96.80;;;;;;5017924;28;86721;-78
2023/05/22 07:07:25;;;;;;;148.50;51.38;;;14.50;96.90;;;;;;5015006;28;86460;-78
2023/05/22 07:09:50;;;;;;;141.35;50.58;;;14.50;96.70;;;;;;5015922;28;90589;-78
2023/05/22 07:12:16;;;;;;;137.95;49.15;;;14.60;96.60;;;;;;5016662;28;87004;-79
2023/05/22 07:14:42;;;;;;;131.00;47.83;;;14.60;96.60;;;;;;5017187;28;86343;-80
2023/05/22 07:17:07;;;;;;;160.55;51.15;;;14.60;96.50;;;;;;5020294;28;86437;-79
2023/05/22 07:19:34;;;;;;;143.18;50.78;;;14.70;96.50;;;;;;5015618;28;89630;-79
2023/05/22 07:22:00;;;;;;;139.80;51.33;;;14.70;96.50;;;;;;5017114;28;87039;-79
2023/05/22 07:24:25;;;;;;;140.50;51.70;;;14.70;96.50;;;;;;5015284;28;86962;-79
2023/05/22 07:26:51;;;;;;;135.85;48.63;;;14.70;96.40;;;;;;5015305;28;86516;-79
2023/05/22 07:29:17;;;;;;;129.48;50.20;;;14.80;96.30;;;;;;5014956;28;89749;-79
2023/05/22 07:31:43;;;;;;;141.70;51.35;;;14.70;96.40;;;;;;5014553;28;88817;-79
2023/05/22 07:34:08;;;;;;;162.55;55.40;;;14.80;96.30;;;;;;5017280;28;86584;-79
2023/05/22 07:36:34;;;;;;;143.57;51.97;;;14.80;96.30;;;;;;5016178;28;86249;-79
2023/05/22 07:39:00;;;;;;;137.00;51.28;;;14.80;96.30;;;;;;5015876;28;89197;-79
2023/05/22 07:41:26;;;;;;;152.73;54.08;;;14.80;96.40;;;;;;5015622;28;90045;-80
2023/05/22 07:43:51;;;;;;;148.80;51.08;;;14.80;96.30;;;;;;5016655;28;86491;-79
2023/05/22 07:46:17;;;;;;;130.52;48.65;;;14.80;96.60;;;;;;5018293;28;86544;-79
2023/05/22 07:48:43;;;;;;;144.75;49.70;;;14.90;96.50;;;;;;5015568;28;89179;-79
2023/05/22 07:51:09;;;;;;;121.07;48.00;;;14.90;96.10;;;;;;5018283;28;93532;-81
2023/05/22 07:53:35;;;;;;;120.43;48.35;;;15.00;95.90;;;;;;5018104;28;86841;-80
2023/05/22 07:56:00;;;;;;;121.68;50.10;;;15.00;95.90;;;;;;5018261;28;87136;-80
2023/05/22 07:58:26;;;;;;;127.32;48.22;;;15.00;96.00;;;;;;5016178;28;90761;-80
2023/05/22 08:00:52;;;;;;;112.97;47.13;;;15.10;96.00;;;;;;5016792;28;90682;-81
2023/05/22 08:03:17;;;;;;;117.22;48.53;;;15.10;95.80;;;;;;5014862;28;86572;-79
2023/05/22 08:05:44;;;;;;;117.47;49.70;;;15.10;95.70;;;;;;5017372;28;86682;-80
2023/05/22 08:08:14;;;;;;;109.75;45.42;;;15.20;95.70;;;;;;5022974;28;90453;-83
2023/05/22 08:10:42;;;;;;;102.95;47.15;;;15.30;95.50;;;;;;5024546;28;86867;-83
2023/05/22 08:13:07;;;;;;;125.30;50.20;;;15.40;95.30;;;;;;5017432;28;86833;-83
2023/05/22 08:15:33;;;;;;;119.07;47.78;;;15.40;95.10;;;;;;5020278;28;86261;-82
2023/05/22 08:18:08;;;;;;;115.10;47.63;;;15.40;95.20;;;;;;5016906;28;90401;-83
2023/05/22 08:20:33;;;;;;;110.70;48.30;;;15.40;95.30;;;;;;5018817;28;88898;-82
2023/05/22 08:22:59;;;;;;;114.82;48.63;;;15.40;95.20;;;;;;5002433;28;86249;-83
2023/05/22 08:25:25;;;;;;;107.07;47.60;;;15.40;95.00;;;;;;5016289;28;86255;-81
2023/05/22 08:28:05;;;;;;;110.88;46.40;;;15.40;95.20;;;;;;5026733;28;85821;-83
2023/05/22 08:33:44;;;;;;;119.30;49.70;;;15.40;95.10;;;;;;5026934;28;85884;-83
2023/05/22 08:36:22;;;;;;;119.88;48.90;;;15.60;94.90;;;;;;5021859;28;86112;-83
2023/05/22 08:38:49;;;;;;;109.65;47.70;;;15.60;94.70;;;;;;5019452;28;86655;-85
2023/05/22 08:41:16;;;;;;;116.40;48.40;;;15.60;94.40;;;;;;5023495;28;87172;-82
2023/05/22 08:43:42;;;;;;;135.82;51.05;;;15.60;94.50;;;;;;4999414;28;86451;-82
2023/05/22 08:46:09;;;;;;;125.88;50.00;;;15.70;94.80;;;;;;5016340;28;86798;-83
2023/05/22 08:48:35;;;;;;;126.80;50.17;;;15.60;94.80;;;;;;5014644;28;88757;-81
2023/05/22 08:51:04;;;;;;;135.32;52.42;;;15.70;94.70;;;;;;5014916;28;90024;-81
2023/05/22 08:53:36;;;;;;;124.47;51.42;;;15.70;94.60;;;;;;5015469;28;86560;-81
2023/05/22 08:56:06;;;;;;;120.40;50.67;;;15.80;94.30;;;;;;5014115;28;87329;-82
2023/05/22 08:58:34;;;;;;;132.85;52.53;;;15.70;94.60;;;;;;5013723;28;89673;-80
2023/05/22 09:01:02;;;;;;;118.97;50.78;;;15.80;94.80;;;;;;5014427;28;88459;-81
2023/05/22 09:03:31;;;;;;;135.32;51.95;;;15.90;94.30;;;;;;5012293;28;86795;-80
2023/05/22 09:05:58;;;;;;;137.93;53.83;;;16.00;93.80;;;;;;5015814;28;86430;-82
2023/05/22 09:08:24;;;;;;;135.25;53.28;;;16.10;93.70;;;;;;5015260;28;86540;-80
2023/05/22 09:10:50;;;;;;;133.13;53.80;;;16.20;93.60;;;;;;5015996;28;86731;-84
2023/05/22 09:13:26;;;;;;;128.90;53.83;;;16.20;93.60;;;;;;5016344;28;86279;-80
2023/05/22 09:15:56;;;;;;;123.57;52.75;;;16.20;93.40;;;;;;5015941;28;88537;-81
2023/05/22 09:18:25;;;;;;;120.95;53.28;;;16.30;93.40;;;;;;5014244;28;91714;-81
2023/05/22 09:20:51;;;;;;;123.65;53.42;;;16.20;93.40;;;;;;5015098;28;86690;-87
2023/05/22 09:23:17;;;;;;;119.95;53.53;;;16.20;93.30;;;;;;5015863;28;86533;-81
2023/05/22 09:25:43;;;;;;;116.47;51.53;;;16.20;93.60;;;;;;5015822;28;86675;-81
2023/05/22 09:28:12;;;;;;;125.38;55.30;;;16.30;93.70;;;;;;5017365;28;88586;-80
2023/05/22 09:30:38;;;;;;;119.25;51.92;;;16.30;93.50;;;;;;5015771;28;86798;-82
2023/05/22 09:33:07;;;;;;;112.50;51.88;;;16.40;93.40;;;;;;5015721;28;86675;-82
2023/05/22 09:35:38;;;;;;;105.82;49.50;;;16.30;93.40;;;;;;5016987;28;86162;-89
2023/05/22 09:38:05;;;;;;;98.60;48.83;;;16.40;93.10;;;;;;5018507;28;89929;-85
2023/05/22 09:40:33;;;;;;;117.25;53.53;;;16.50;93.10;;;;;;5018621;28;88515;-84
2023/05/22 09:43:00;;;;;;;104.88;52.65;;;16.50;92.70;;;;;;5020332;28;86506;-83
2023/05/22 09:45:26;;;;;;;113.60;52.80;;;16.60;92.90;;;;;;5015248;28;86708;-84
2023/05/22 09:47:52;;;;;;;105.43;51.30;;;16.60;92.80;;;;;;5013760;28;90346;-84
2023/05/22 09:50:18;;;;;;;111.50;51.67;;;16.70;93.10;;;;;;5016888;28;86872;-85
2023/05/22 09:52:45;;;;;;;108.85;50.92;;;16.80;92.30;;;;;;5016578;28;86142;-83
2023/05/22 09:55:12;;;;;;;108.45;52.15;;;16.80;92.20;;;;;;5016437;28;86003;-84
2023/05/22 09:57:45;;;;;;;110.70;51.75;;;16.70;92.70;;;;;;5016477;28;90073;-85
2023/05/22 10:00:14;;;;;;;113.55;52.80;;;16.70;92.50;;;;;;5017467;28;89914;-85
2023/05/22 10:02:49;;;;;;;120.70;53.88;;;16.80;92.30;;;;;;5017901;28;86610;-80
2023/05/22 10:05:24;;;;;;;112.78;52.22;;;16.80;92.20;;;;;;5018483;28;86437;-81
2023/05/22 10:07:54;;;;;;;116.20;52.53;;;16.90;92.40;;;;;;5017376;28;88783;-81
2023/05/22 10:10:23;;;;;;;107.10;51.17;;;17.00;91.90;;;;;;5017779;28;86585;-81
2023/05/22 10:12:56;;;;;;;116.88;53.05;;;17.00;91.60;;;;;;5017556;28;86763;-82
2023/05/22 10:15:22;;;;;;;115.70;52.85;;;17.20;91.70;;;;;;5016650;28;87210;-81
2023/05/22 10:17:48;;;;;;;99.57;51.47;;;17.30;91.90;;;;;;5018433;28;87107;-80
2023/05/22 10:20:15;;;;;;;95.13;48.60;;;17.40;91.30;;;;;;5018272;28;86381;-80
2023/05/22 10:22:42;;;;;;;107.00;50.42;;;17.50;90.80;;;;;;5017467;28;86031;-80
2023/05/22 10:25:08;;;;;;;100.55;49.97;;;17.60;90.30;;;;;;5018337;28;86165;-81
2023/05/22 10:27:34;;;;;;;99.95;49.63;;;17.70;90.30;;;;;;5017172;28;89317;-80
2023/05/22 10:30:34;;;;;;;96.93;48.60;;;17.80;90.30;;;;;;5017222;28;88679;-85
2023/05/22 10:33:21;;;;;;;96.18;47.15;;;17.80;90.30;;;;;;5016858;28;86278;-79
2023/05/22 10:36:01;;;;;;;97.10;48.83;;;17.90;90.20;;;;;;5016873;28;86224;-81
2023/05/22 10:38:26;;;;;;;95.05;49.20;;;18.00;90.20;;;;;;5017067;28;87545;-81
2023/05/22 10:40:53;;;;;;;99.85;49.88;;;18.00;90.20;;;;;;5014212;28;86885;-82
2023/05/22 10:43:21;;;;;;;95.20;49.13;;;18.00;89.80;;;;;;5017801;28;87056;-81
2023/05/22 10:45:46;;;;;;;86.28;45.95;;;18.00;89.80;;;;;;5016528;28;90453;-81
2023/05/22 10:48:12;;;;;;;87.80;48.30;;;18.10;89.60;;;;;;5016608;28;87440;-80
2023/05/22 10:50:39;;;;;;;87.60;45.88;;;18.20;89.20;;;;;;5015715;28;90224;-80
2023/05/22 10:53:25;;;;;;;86.90;47.33;;;18.30;87.80;;;;;;5017886;28;86550;-82
2023/05/22 10:55:58;;;;;;;85.28;45.17;;;18.50;87.80;;;;;;5017315;28;87093;-81
2023/05/22 10:58:29;;;;;;;89.18;47.88;;;18.70;87.00;;;;;;5014920;28;89702;-79
2023/05/22 11:01:16;;;;;;;89.45;49.15;;;18.80;87.10;;;;;;5017859;28;87525;-79
2023/05/22 11:03:58;;;;;;;87.38;48.03;;;18.80;86.70;;;;;;5016086;28;87418;-77
2023/05/22 11:06:30;;;;;;;95.38;49.15;;;18.80;86.70;;;;;;5015536;28;86455;-78
2023/05/22 11:08:59;;;;;;;98.13;50.85;;;18.80;86.70;;;;;;5017165;28;86874;-78
2023/05/22 11:11:26;;;;;;;103.80;51.95;;;18.80;86.70;;;;;;5015869;28;87653;-78
2023/05/22 11:13:52;;;;;;;97.35;52.03;;;18.90;87.80;;;;;;5014834;28;86299;-77
2023/05/22 11:16:18;;;;;;;102.72;51.33;;;18.90;86.90;;;;;;5016375;28;87232;-78
2023/05/22 11:18:45;;;;;;;99.25;50.63;;;18.90;86.20;;;;;;5015659;28;93884;-77
2023/05/22 11:21:12;;;;;;;94.60;49.97;;;19.00;86.50;;;;;;5016505;28;86886;-85
2023/05/22 11:23:38;;;;;;;97.63;50.08;;;19.00;85.80;;;;;;5016137;28;87109;-85
2023/05/22 11:26:21;;;;;;;102.60;50.10;;;19.20;86.30;;;;;;5015374;28;86757;-77
2023/05/22 11:28:51;;;;;;;99.60;49.60;;;19.40;85.30;;;;;;5016879;28;86733;-78
2023/05/22 11:31:17;;;;;;;96.35;49.63;;;19.50;84.90;;;;;;5017425;28;86892;-77
2023/05/22 11:33:46;;;;;;;89.25;47.97;;;19.50;84.00;;;;;;5017094;28;86373;-79
2023/05/22 11:36:11;;;;;;;81.25;45.50;;;19.50;85.00;;;;;;5017929;28;86526;-82
2023/05/22 11:38:40;;;;;;;80.20;46.05;;;19.70;83.30;;;;;;5016536;28;88217;-82
2023/05/22 11:41:09;;;;;;;75.80;44.55;;;19.80;82.40;;;;;;5016190;28;89165;-78
2023/05/22 11:43:35;;;;;;;84.97;45.95;;;19.80;82.50;;;;;;5017043;28;86090;-81
2023/05/22 11:46:06;;;;;;;83.20;45.20;;;19.70;82.90;;;;;;5016466;28;86006;-82
2023/05/22 11:48:33;;;;;;;75.93;43.20;;;19.90;83.90;;;;;;5014353;28;90437;-79
2023/05/22 11:50:59;;;;;;;79.63;46.38;;;20.10;82.10;;;;;;5015691;28;89091;-82
2023/05/22 11:53:25;;;;;;;82.50;45.58;;;20.20;81.60;;;;;;5016792;28;86452;-83
2023/05/22 11:55:51;;;;;;;77.50;43.45;;;20.30;81.80;;;;;;5015134;28;86517;-76
2023/05/22 11:58:25;;;;;;;78.43;43.63;;;20.60;81.80;;;;;;5015623;28;86884;-79
2023/05/22 12:00:51;;;;;;;69.55;42.30;;;20.70;79.00;;;;;;5016276;28;90802;-78
2023/05/22 12:03:17;;;;;;;71.43;40.85;;;20.80;80.60;;;;;;5014331;28;87647;-76
2023/05/22 12:05:45;;;;;;;70.15;42.00;;;21.00;78.80;;;;;;5016342;28;86719;-76
2023/05/22 12:08:11;;;;;;;68.80;42.03;;;21.20;77.70;;;;;;5029818;28;89117;-77
2023/05/22 12:10:37;;;;;;;61.67;39.20;;;21.40;77.20;;;;;;5015324;28;86175;-77
2023/05/22 12:13:02;;;;;;;63.08;40.85;;;21.60;76.60;;;;;;5016742;28;86524;-75
2023/05/22 12:15:28;;;;;;;59.72;40.03;;;22.00;75.30;;;;;;5014243;28;85931;-76
2023/05/22 12:17:54;;;;;;;60.30;39.05;;;22.00;73.70;;;;;;5015411;28;87326;-76
2023/05/22 12:20:20;;;;;;;66.30;40.65;;;22.00;75.10;;;;;;5013772;28;88454;-77
2023/05/22 12:22:47;;;;;;;58.65;38.80;;;22.20;73.80;;;;;;5013321;28;87275;-77
2023/05/22 12:25:16;;;;;;;62.33;39.72;;;22.20;73.50;;;;;;5014949;28;86532;-76
2023/05/22 12:27:44;;;;;;;54.08;37.90;;;22.10;75.70;;;;;;5013680;28;87194;-76
2023/05/22 12:30:12;;;;;;;67.15;40.05;;;22.10;74.40;;;;;;5012779;28;90217;-76